Medicine Hat Airport, Alberta

Past 24 Hour Conditions

Date / Time
(MST)
Conditions Temp
(°F)
Humidity
(%)
Dew Point
(°F)
Wind
(mph)
Pressure
(inches)
Vis
(mi)
Wind Chill
27 November 2014
18:00 Mist 28   100 28 NW 5 29.8 2 23
17:00 Cloudy 29 100 29 NNW 4 29.8 10 24
16:00 Cloudy 31 91 28 WNW 7 29.8 15 24
15:00 Cloudy 32 88 28 NW 5 29.8 15 27
14:00 Cloudy 32 87 28 N 2 29.8 30 30
13:00 Cloudy 33   84 28 N 5 29.8 30 *
12:00 Mostly Cloudy 33   85 29 N 6 29.8 30 *
11:00 Mostly Cloudy 31 90 28 NNW 9 29.8 30 23
10:00 Mostly Cloudy 30 95 28 NNE 8 29.8 30 22
9:00 Mostly Cloudy 29 98 29 NE 4 29.8 30 25
8:00 Mostly Cloudy 29 99 29 NE 6 29.8 30 22
7:00 Light Freezing Rain 29 100 29 ENE 9 29.8 4 21
6:00 Light Snow 29 99 29 ENE 9 29.9 2 21
5:00 Light Snow 29 100 29 ENE 10 29.9 1 20
4:00 Light Snow 29 100 29 ENE 8 30.0 1 21
3:00 Light Snow 29 100 29 ENE 7 30.0 0.7 22
2:00 Light Snow 29 100 29 ENE 8 30.1 1 21
1:00 Light Snow 29 98 29 ENE 6 30.1 2 23
00:00 Light Snow 29 99 29 ENE 6 30.1 2 23
26 November 2014
23:00 Light Snow 29 97 29 NE 5 30.2 3 24
22:00 Light Snow 31 87 27 SSE 10 30.2 10 22
21:00 Light Snow 28   92 26 ENE 2 30.2 9 26
20:00 Light Snow 28   93 26 E 3 30.2 10 25
19:00 Light Snow 28   94 26 ENE 5 30.2 6 22
18:00 Light Snow 28   94 27 ENE 5 30.3 4 23
N/A Not available
↑ Highest temperature
↓ Lowest temperature
* Value not significant.

If you require additional historical weather information, please visit Climate Data Online.

Date modified: